KALB/ALB METAR and TAF weather

Enter ICAO airport designator
Station Type Date Time Source
KALB METAR 2020/09/30 15:51 UTC NOAA

KALB 301551Z 27009KT 10SM FEW030 SCT070 15/11 A2965 RMK AO2 SLP040 T01500106


Station Type Date Time Source
KALB Decoded METAR 2020/09/30 15:51 UTC NOAA

ALBANY INTERNATIONAL AIRPORT, NY, United States (KALB) 42-45N 73-48W
Sep 30, 2020 - 11:51 AM EDT / 2020.09.30 1551 UTC
Wind: from the W (270 degrees) at 10 MPH (9 KT):0
Visibility: 10 mile(s):0
Sky conditions: partly cloudy
Temperature: 59.0 F (15.0 C)
Dew Point: 51.1 F (10.6 C)
Relative Humidity: 74%
Pressure (altimeter): 29.65 in. Hg (1004 hPa)
ob: KALB 301551Z 27009KT 10SM FEW030 SCT070 15/11 A2965 RMK AO2 SLP040 T01500106
cycle: 16

Station Type Date Time Source
KALB TAF 2020/09/30 14:58 UTC NOAA

TAF
AMD KALB 301356Z 3014/0112 23008KT P6SM -SHRA SCT030 OVC050
TEMPO 3014/3015 5SM -RA BR BKN025 OVC035
FM301500 28010G16KT P6SM SCT040 BKN070
FM301700 27013G21KT P6SM VCSH SCT060
FM302300 20010KT P6SM FEW060

Example: see airport list